sensor_id;sensor_type;location;lat;lon;timestamp;P1;durP1;ratioP1;P2;durP2;ratioP2
66542;SDS011;53395;37.360;-122.046;2023-09-30T00:01:51;0.32;;;0.10;;
66542;SDS011;53395;37.360;-122.046;2023-09-30T00:04:36;0.40;;;0.20;;
66542;SDS011;53395;37.360;-122.046;2023-09-30T00:07:21;1.48;;;0.30;;
66542;SDS011;53395;37.360;-122.046;2023-09-30T00:10:06;1.65;;;0.20;;
66542;SDS011;53395;37.360;-122.046;2023-09-30T00:12:50;0.85;;;0.20;;
66542;SDS011;53395;37.360;-122.046;2023-09-30T00:15:35;0.52;;;0.20;;
66542;SDS011;53395;37.360;-122.046;2023-09-30T00:18:20;0.57;;;0.30;;
66542;SDS011;53395;37.360;-122.046;2023-09-30T00:21:05;2.20;;;0.30;;
66542;SDS011;53395;37.360;-122.046;2023-09-30T00:23:50;0.68;;;0.30;;
66542;SDS011;53395;37.360;-122.046;2023-09-30T00:26:34;1.35;;;0.40;;
66542;SDS011;53395;37.360;-122.046;2023-09-30T00:29:20;0.25;;;0.13;;
66542;SDS011;53395;37.360;-122.046;2023-09-30T00:32:04;0.60;;;0.30;;
66542;SDS011;53395;37.360;-122.046;2023-09-30T00:34:49;1.42;;;0.38;;
66542;SDS011;53395;37.360;-122.046;2023-09-30T00:37:35;0.73;;;0.30;;
66542;SDS011;53395;37.360;-122.046;2023-09-30T00:40:20;0.70;;;0.30;;
66542;SDS011;53395;37.360;-122.046;2023-09-30T00:43:05;0.50;;;0.20;;
66542;SDS011;53395;37.360;-122.046;2023-09-30T00:45:54;1.02;;;0.30;;
66542;SDS011;53395;37.360;-122.046;2023-09-30T00:48:39;0.80;;;0.40;;
66542;SDS011;53395;37.360;-122.046;2023-09-30T00:51:24;0.63;;;0.32;;
66542;SDS011;53395;37.360;-122.046;2023-09-30T00:54:09;1.50;;;0.30;;
66542;SDS011;53395;37.360;-122.046;2023-09-30T00:56:54;0.63;;;0.28;;
66542;SDS011;53395;37.360;-122.046;2023-09-30T00:59:44;0.63;;;0.20;;
66542;SDS011;53395;37.360;-122.046;2023-09-30T01:02:28;0.57;;;0.30;;
66542;SDS011;53395;37.360;-122.046;2023-09-30T01:05:13;1.23;;;0.55;;
66542;SDS011;53395;37.360;-122.046;2023-09-30T01:07:58;3.20;;;0.93;;
66542;SDS011;53395;37.360;-122.046;2023-09-30T01:10:42;0.95;;;0.40;;
66542;SDS011;53395;37.360;-122.046;2023-09-30T01:13:33;2.15;;;0.30;;
66542;SDS011;53395;37.360;-122.046;2023-09-30T01:16:21;1.27;;;0.40;;
66542;SDS011;53395;37.360;-122.046;2023-09-30T01:19:05;0.90;;;0.22;;
66542;SDS011;53395;37.360;-122.046;2023-09-30T01:21:56;1.17;;;0.30;;
66542;SDS011;53395;37.360;-122.046;2023-09-30T01:24:47;1.10;;;0.20;;
66542;SDS011;53395;37.360;-122.046;2023-09-30T01:27:32;7.05;;;2.10;;
66542;SDS011;53395;37.360;-122.046;2023-09-30T01:30:17;0.50;;;0.20;;
66542;SDS011;53395;37.360;-122.046;2023-09-30T01:33:02;2.10;;;0.57;;
66542;SDS011;53395;37.360;-122.046;2023-09-30T01:35:46;2.38;;;0.70;;
66542;SDS011;53395;37.360;-122.046;2023-09-30T01:38:31;2.20;;;0.32;;
66542;SDS011;53395;37.360;-122.046;2023-09-30T01:41:15;0.10;;;0.10;;
66542;SDS011;53395;37.360;-122.046;2023-09-30T01:44:00;1.25;;;0.00;;
66542;SDS011;53395;37.360;-122.046;2023-09-30T01:46:45;0.22;;;0.10;;
66542;SDS011;53395;37.360;-122.046;2023-09-30T01:49:30;0.15;;;0.05;;
66542;SDS011;53395;37.360;-122.046;2023-09-30T01:52:14;0.68;;;0.15;;
66542;SDS011;53395;37.360;-122.046;2023-09-30T01:54:59;0.95;;;0.30;;
66542;SDS011;53395;37.360;-122.046;2023-09-30T01:57:44;1.35;;;0.40;;
66542;SDS011;53395;37.360;-122.046;2023-09-30T02:00:28;2.03;;;0.50;;
66542;SDS011;53395;37.360;-122.046;2023-09-30T02:03:14;2.92;;;0.40;;
66542;SDS011;53395;37.360;-122.046;2023-09-30T02:05:58;2.42;;;0.47;;
66542;SDS011;53395;37.360;-122.046;2023-09-30T02:08:42;2.20;;;0.57;;
66542;SDS011;53395;37.360;-122.046;2023-09-30T02:11:28;1.75;;;0.40;;
66542;SDS011;53395;37.360;-122.046;2023-09-30T02:14:12;3.83;;;0.60;;
66542;SDS011;53395;37.360;-122.046;2023-09-30T02:16:57;1.92;;;0.65;;
66542;SDS011;53395;37.360;-122.046;2023-09-30T02:19:42;3.72;;;0.90;;
66542;SDS011;53395;37.360;-122.046;2023-09-30T02:22:27;4.25;;;0.70;;
66542;SDS011;53395;37.360;-122.046;2023-09-30T02:25:12;4.15;;;0.90;;
66542;SDS011;53395;37.360;-122.046;2023-09-30T02:27:57;5.00;;;0.80;;
66542;SDS011;53395;37.360;-122.046;2023-09-30T02:30:41;3.05;;;0.60;;
66542;SDS011;53395;37.360;-122.046;2023-09-30T02:33:26;1.70;;;0.70;;
66542;SDS011;53395;37.360;-122.046;2023-09-30T02:36:11;2.83;;;0.55;;
66542;SDS011;53395;37.360;-122.046;2023-09-30T02:38:56;4.82;;;2.97;;
66542;SDS011;53395;37.360;-122.046;2023-09-30T02:41:42;4.05;;;1.30;;
66542;SDS011;53395;37.360;-122.046;2023-09-30T02:44:27;2.13;;;0.50;;
66542;SDS011;53395;37.360;-122.046;2023-09-30T02:47:11;2.08;;;0.45;;
66542;SDS011;53395;37.360;-122.046;2023-09-30T02:49:56;5.55;;;0.80;;
66542;SDS011;53395;37.360;-122.046;2023-09-30T02:52:41;2.75;;;0.63;;
66542;SDS011;53395;37.360;-122.046;2023-09-30T02:55:26;2.67;;;0.63;;
66542;SDS011;53395;37.360;-122.046;2023-09-30T02:58:10;4.80;;;0.82;;
66542;SDS011;53395;37.360;-122.046;2023-09-30T03:00:54;5.18;;;0.70;;
66542;SDS011;53395;37.360;-122.046;2023-09-30T03:03:39;4.15;;;0.90;;
66542;SDS011;53395;37.360;-122.046;2023-09-30T03:06:24;2.88;;;0.85;;
66542;SDS011;53395;37.360;-122.046;2023-09-30T03:09:08;3.58;;;0.50;;
66542;SDS011;53395;37.360;-122.046;2023-09-30T03:11:54;2.97;;;0.63;;
66542;SDS011;53395;37.360;-122.046;2023-09-30T03:14:40;3.55;;;0.68;;
66542;SDS011;53395;37.360;-122.046;2023-09-30T03:17:25;2.50;;;0.60;;
66542;SDS011;53395;37.360;-122.046;2023-09-30T03:20:10;4.15;;;0.80;;
66542;SDS011;53395;37.360;-122.046;2023-09-30T03:22:58;3.20;;;0.75;;
66542;SDS011;53395;37.360;-122.046;2023-09-30T03:25:43;2.03;;;0.60;;
66542;SDS011;53395;37.360;-122.046;2023-09-30T03:28:28;4.53;;;0.63;;
66542;SDS011;53395;37.360;-122.046;2023-09-30T03:31:13;2.55;;;0.65;;
66542;SDS011;53395;37.360;-122.046;2023-09-30T03:34:03;3.88;;;0.65;;
66542;SDS011;53395;37.360;-122.046;2023-09-30T03:36:48;5.93;;;0.82;;
66542;SDS011;53395;37.360;-122.046;2023-09-30T03:39:33;3.20;;;0.63;;
66542;SDS011;53395;37.360;-122.046;2023-09-30T03:42:18;4.53;;;0.93;;
66542;SDS011;53395;37.360;-122.046;2023-09-30T03:45:03;4.55;;;0.90;;
66542;SDS011;53395;37.360;-122.046;2023-09-30T03:47:50;5.53;;;0.98;;
66542;SDS011;53395;37.360;-122.046;2023-09-30T03:53:19;7.10;;;0.68;;
66542;SDS011;53395;37.360;-122.046;2023-09-30T03:56:04;2.75;;;0.68;;
66542;SDS011;53395;37.360;-122.046;2023-09-30T03:58:50;5.13;;;0.73;;
66542;SDS011;53395;37.360;-122.046;2023-09-30T04:01:36;5.43;;;0.85;;
66542;SDS011;53395;37.360;-122.046;2023-09-30T04:04:24;4.65;;;0.85;;
66542;SDS011;53395;37.360;-122.046;2023-09-30T04:07:10;5.10;;;0.88;;
66542;SDS011;53395;37.360;-122.046;2023-09-30T04:09:54;6.18;;;0.75;;
66542;SDS011;53395;37.360;-122.046;2023-09-30T04:15:24;3.20;;;0.60;;
66542;SDS011;53395;37.360;-122.046;2023-09-30T04:18:08;5.03;;;0.50;;
66542;SDS011;53395;37.360;-122.046;2023-09-30T04:20:53;5.78;;;0.80;;
66542;SDS011;53395;37.360;-122.046;2023-09-30T04:23:37;3.80;;;0.73;;
66542;SDS011;53395;37.360;-122.046;2023-09-30T04:26:22;4.65;;;0.85;;
66542;SDS011;53395;37.360;-122.046;2023-09-30T04:29:06;9.32;;;1.35;;
66542;SDS011;53395;37.360;-122.046;2023-09-30T04:31:54;5.60;;;0.90;;
66542;SDS011;53395;37.360;-122.046;2023-09-30T04:34:39;6.03;;;0.90;;
66542;SDS011;53395;37.360;-122.046;2023-09-30T04:37:23;7.90;;;1.40;;
66542;SDS011;53395;37.360;-122.046;2023-09-30T04:40:08;9.55;;;1.88;;
66542;SDS011;53395;37.360;-122.046;2023-09-30T04:42:59;9.98;;;1.73;;
66542;SDS011;53395;37.360;-122.046;2023-09-30T04:45:44;14.43;;;1.73;;
66542;SDS011;53395;37.360;-122.046;2023-09-30T04:48:28;10.57;;;1.65;;
66542;SDS011;53395;37.360;-122.046;2023-09-30T04:51:13;7.00;;;1.25;;
66542;SDS011;53395;37.360;-122.046;2023-09-30T04:54:00;7.00;;;1.10;;
66542;SDS011;53395;37.360;-122.046;2023-09-30T04:56:46;5.53;;;1.00;;
66542;SDS011;53395;37.360;-122.046;2023-09-30T04:59:31;7.15;;;1.33;;
66542;SDS011;53395;37.360;-122.046;2023-09-30T05:02:15;7.43;;;0.90;;
66542;SDS011;53395;37.360;-122.046;2023-09-30T05:05:00;7.63;;;1.58;;
66542;SDS011;53395;37.360;-122.046;2023-09-30T05:07:45;7.30;;;1.33;;
66542;SDS011;53395;37.360;-122.046;2023-09-30T05:10:31;6.30;;;0.90;;
66542;SDS011;53395;37.360;-122.046;2023-09-30T05:13:16;4.55;;;0.88;;
66542;SDS011;53395;37.360;-122.046;2023-09-30T05:16:01;7.68;;;0.85;;
66542;SDS011;53395;37.360;-122.046;2023-09-30T05:18:47;8.50;;;1.73;;
66542;SDS011;53395;37.360;-122.046;2023-09-30T05:21:32;8.15;;;1.10;;
66542;SDS011;53395;37.360;-122.046;2023-09-30T05:24:17;5.70;;;0.80;;
66542;SDS011;53395;37.360;-122.046;2023-09-30T05:27:02;5.40;;;1.10;;
66542;SDS011;53395;37.360;-122.046;2023-09-30T05:29:47;6.70;;;0.80;;
66542;SDS011;53395;37.360;-122.046;2023-09-30T05:32:31;5.97;;;1.27;;
66542;SDS011;53395;37.360;-122.046;2023-09-30T05:35:16;7.47;;;1.10;;
66542;SDS011;53395;37.360;-122.046;2023-09-30T05:38:01;5.10;;;1.00;;
66542;SDS011;53395;37.360;-122.046;2023-09-30T05:40:46;5.90;;;1.00;;
66542;SDS011;53395;37.360;-122.046;2023-09-30T05:43:32;6.85;;;1.13;;
66542;SDS011;53395;37.360;-122.046;2023-09-30T05:46:16;12.15;;;1.25;;
66542;SDS011;53395;37.360;-122.046;2023-09-30T05:49:01;8.07;;;1.08;;
66542;SDS011;53395;37.360;-122.046;2023-09-30T05:51:50;8.00;;;1.50;;
66542;SDS011;53395;37.360;-122.046;2023-09-30T05:54:35;3.38;;;0.73;;
66542;SDS011;53395;37.360;-122.046;2023-09-30T05:57:20;9.48;;;1.30;;
66542;SDS011;53395;37.360;-122.046;2023-09-30T06:00:07;9.02;;;2.00;;
66542;SDS011;53395;37.360;-122.046;2023-09-30T06:02:56;6.55;;;1.15;;
66542;SDS011;53395;37.360;-122.046;2023-09-30T06:08:25;6.40;;;0.80;;
66542;SDS011;53395;37.360;-122.046;2023-09-30T06:11:17;6.47;;;1.10;;
66542;SDS011;53395;37.360;-122.046;2023-09-30T06:14:03;3.42;;;0.70;;
66542;SDS011;53395;37.360;-122.046;2023-09-30T06:16:50;8.55;;;1.00;;
66542;SDS011;53395;37.360;-122.046;2023-09-30T06:19:34;6.95;;;1.00;;
66542;SDS011;53395;37.360;-122.046;2023-09-30T06:22:19;10.02;;;1.10;;
66542;SDS011;53395;37.360;-122.046;2023-09-30T06:25:04;6.68;;;1.10;;
66542;SDS011;53395;37.360;-122.046;2023-09-30T06:27:48;7.32;;;1.08;;
66542;SDS011;53395;37.360;-122.046;2023-09-30T06:30:34;7.53;;;1.13;;
66542;SDS011;53395;37.360;-122.046;2023-09-30T06:33:18;7.65;;;1.30;;
66542;SDS011;53395;37.360;-122.046;2023-09-30T06:36:03;6.72;;;1.23;;
66542;SDS011;53395;37.360;-122.046;2023-09-30T06:38:48;7.05;;;0.88;;
66542;SDS011;53395;37.360;-122.046;2023-09-30T06:41:34;7.25;;;1.02;;
66542;SDS011;53395;37.360;-122.046;2023-09-30T06:44:18;6.28;;;0.90;;
66542;SDS011;53395;37.360;-122.046;2023-09-30T06:47:03;9.15;;;1.30;;
66542;SDS011;53395;37.360;-122.046;2023-09-30T06:49:48;5.68;;;0.90;;
66542;SDS011;53395;37.360;-122.046;2023-09-30T06:52:34;7.20;;;0.80;;
66542;SDS011;53395;37.360;-122.046;2023-09-30T06:55:19;12.10;;;1.02;;
66542;SDS011;53395;37.360;-122.046;2023-09-30T06:58:03;11.27;;;1.35;;
66542;SDS011;53395;37.360;-122.046;2023-09-30T07:00:51;8.82;;;1.13;;
66542;SDS011;53395;37.360;-122.046;2023-09-30T07:03:37;6.72;;;1.20;;
66542;SDS011;53395;37.360;-122.046;2023-09-30T07:06:22;7.63;;;1.25;;
66542;SDS011;53395;37.360;-122.046;2023-09-30T07:09:06;8.35;;;1.05;;
66542;SDS011;53395;37.360;-122.046;2023-09-30T07:11:51;5.82;;;1.25;;
66542;SDS011;53395;37.360;-122.046;2023-09-30T07:14:35;6.18;;;0.98;;
66542;SDS011;53395;37.360;-122.046;2023-09-30T07:17:20;7.72;;;0.90;;
66542;SDS011;53395;37.360;-122.046;2023-09-30T07:20:05;7.55;;;1.25;;
66542;SDS011;53395;37.360;-122.046;2023-09-30T07:22:50;8.13;;;1.10;;
66542;SDS011;53395;37.360;-122.046;2023-09-30T07:25:35;10.55;;;1.27;;
66542;SDS011;53395;37.360;-122.046;2023-09-30T07:28:19;7.55;;;0.80;;
66542;SDS011;53395;37.360;-122.046;2023-09-30T07:31:04;9.07;;;0.98;;
66542;SDS011;53395;37.360;-122.046;2023-09-30T07:33:49;5.22;;;1.05;;
66542;SDS011;53395;37.360;-122.046;2023-09-30T07:36:34;5.82;;;1.40;;
66542;SDS011;53395;37.360;-122.046;2023-09-30T07:39:18;5.05;;;0.95;;
66542;SDS011;53395;37.360;-122.046;2023-09-30T07:42:03;6.78;;;1.30;;
66542;SDS011;53395;37.360;-122.046;2023-09-30T07:44:47;6.70;;;1.10;;
66542;SDS011;53395;37.360;-122.046;2023-09-30T07:47:33;9.00;;;1.13;;
66542;SDS011;53395;37.360;-122.046;2023-09-30T07:50:18;7.72;;;0.90;;
66542;SDS011;53395;37.360;-122.046;2023-09-30T07:53:03;9.73;;;1.60;;
66542;SDS011;53395;37.360;-122.046;2023-09-30T07:55:47;7.15;;;1.02;;
66542;SDS011;53395;37.360;-122.046;2023-09-30T07:58:32;7.25;;;0.90;;
66542;SDS011;53395;37.360;-122.046;2023-09-30T08:01:17;5.15;;;0.82;;
66542;SDS011;53395;37.360;-122.046;2023-09-30T08:04:02;7.60;;;1.25;;
66542;SDS011;53395;37.360;-122.046;2023-09-30T08:06:46;7.78;;;1.02;;
66542;SDS011;53395;37.360;-122.046;2023-09-30T08:09:31;3.85;;;0.98;;
66542;SDS011;53395;37.360;-122.046;2023-09-30T08:12:15;9.05;;;1.05;;
66542;SDS011;53395;37.360;-122.046;2023-09-30T08:15:00;3.97;;;0.73;;
66542;SDS011;53395;37.360;-122.046;2023-09-30T08:17:44;7.00;;;0.93;;
66542;SDS011;53395;37.360;-122.046;2023-09-30T08:20:29;7.88;;;1.20;;
66542;SDS011;53395;37.360;-122.046;2023-09-30T08:23:14;15.32;;;1.27;;
66542;SDS011;53395;37.360;-122.046;2023-09-30T08:25:58;8.63;;;1.20;;
66542;SDS011;53395;37.360;-122.046;2023-09-30T08:28:43;8.95;;;1.13;;
66542;SDS011;53395;37.360;-122.046;2023-09-30T08:31:28;8.63;;;1.05;;
66542;SDS011;53395;37.360;-122.046;2023-09-30T08:34:15;5.88;;;0.80;;
66542;SDS011;53395;37.360;-122.046;2023-09-30T08:37:00;7.57;;;1.40;;
66542;SDS011;53395;37.360;-122.046;2023-09-30T08:39:44;16.08;;;1.35;;
66542;SDS011;53395;37.360;-122.046;2023-09-30T08:42:28;9.50;;;1.00;;
66542;SDS011;53395;37.360;-122.046;2023-09-30T08:45:16;9.95;;;1.27;;
66542;SDS011;53395;37.360;-122.046;2023-09-30T08:50:49;6.28;;;0.95;;
66542;SDS011;53395;37.360;-122.046;2023-09-30T08:53:35;7.38;;;1.38;;
66542;SDS011;53395;37.360;-122.046;2023-09-30T08:56:20;5.65;;;0.80;;
66542;SDS011;53395;37.360;-122.046;2023-09-30T08:59:07;8.15;;;1.20;;
66542;SDS011;53395;37.360;-122.046;2023-09-30T09:01:51;8.23;;;1.10;;
66542;SDS011;53395;37.360;-122.046;2023-09-30T09:04:36;6.65;;;1.00;;
66542;SDS011;53395;37.360;-122.046;2023-09-30T09:07:21;6.85;;;0.98;;
66542;SDS011;53395;37.360;-122.046;2023-09-30T09:10:06;4.82;;;1.00;;
66542;SDS011;53395;37.360;-122.046;2023-09-30T09:12:55;10.73;;;1.30;;
66542;SDS011;53395;37.360;-122.046;2023-09-30T09:15:40;7.30;;;0.90;;
66542;SDS011;53395;37.360;-122.046;2023-09-30T09:18:31;4.97;;;1.25;;
66542;SDS011;53395;37.360;-122.046;2023-09-30T09:21:20;8.82;;;1.45;;
66542;SDS011;53395;37.360;-122.046;2023-09-30T09:24:06;4.70;;;0.90;;
66542;SDS011;53395;37.360;-122.046;2023-09-30T09:26:50;6.10;;;0.85;;
66542;SDS011;53395;37.360;-122.046;2023-09-30T09:29:36;6.43;;;1.20;;
66542;SDS011;53395;37.360;-122.046;2023-09-30T09:32:21;6.22;;;0.80;;
66542;SDS011;53395;37.360;-122.046;2023-09-30T09:35:06;5.15;;;0.90;;
66542;SDS011;53395;37.360;-122.046;2023-09-30T09:37:54;6.85;;;0.90;;
66542;SDS011;53395;37.360;-122.046;2023-09-30T09:40:39;4.18;;;0.60;;
66542;SDS011;53395;37.360;-122.046;2023-09-30T09:48:52;4.75;;;0.90;;
66542;SDS011;53395;37.360;-122.046;2023-09-30T09:51:38;3.55;;;0.80;;
66542;SDS011;53395;37.360;-122.046;2023-09-30T09:54:22;4.00;;;0.75;;
66542;SDS011;53395;37.360;-122.046;2023-09-30T09:57:08;5.18;;;0.70;;
66542;SDS011;53395;37.360;-122.046;2023-09-30T09:59:54;5.68;;;1.10;;
66542;SDS011;53395;37.360;-122.046;2023-09-30T10:02:40;5.07;;;0.88;;
66542;SDS011;53395;37.360;-122.046;2023-09-30T10:05:24;6.55;;;1.02;;
66542;SDS011;53395;37.360;-122.046;2023-09-30T10:08:11;5.88;;;0.93;;
66542;SDS011;53395;37.360;-122.046;2023-09-30T10:10:56;2.42;;;0.70;;
66542;SDS011;53395;37.360;-122.046;2023-09-30T10:13:52;4.57;;;0.70;;
66542;SDS011;53395;37.360;-122.046;2023-09-30T10:19:22;4.20;;;0.55;;
66542;SDS011;53395;37.360;-122.046;2023-09-30T10:25:32;3.42;;;0.70;;
66542;SDS011;53395;37.360;-122.046;2023-09-30T10:31:17;2.63;;;0.60;;
66542;SDS011;53395;37.360;-122.046;2023-09-30T10:36:53;2.35;;;0.60;;
66542;SDS011;53395;37.360;-122.046;2023-09-30T10:39:53;3.63;;;0.70;;
66542;SDS011;53395;37.360;-122.046;2023-09-30T10:42:45;3.33;;;0.60;;
66542;SDS011;53395;37.360;-122.046;2023-09-30T10:51:19;1.67;;;0.70;;
66542;SDS011;53395;37.360;-122.046;2023-09-30T10:54:07;6.15;;;0.80;;
66542;SDS011;53395;37.360;-122.046;2023-09-30T10:56:52;3.92;;;1.05;;
66542;SDS011;53395;37.360;-122.046;2023-09-30T10:59:39;3.67;;;0.88;;
66542;SDS011;53395;37.360;-122.046;2023-09-30T11:02:24;2.00;;;0.68;;
66542;SDS011;53395;37.360;-122.046;2023-09-30T11:05:10;4.90;;;0.80;;
66542;SDS011;53395;37.360;-122.046;2023-09-30T11:07:55;5.03;;;0.75;;
66542;SDS011;53395;37.360;-122.046;2023-09-30T11:10:49;4.70;;;0.73;;
66542;SDS011;53395;37.360;-122.046;2023-09-30T11:13:35;3.00;;;0.70;;
66542;SDS011;53395;37.360;-122.046;2023-09-30T11:16:20;3.22;;;0.70;;
66542;SDS011;53395;37.360;-122.046;2023-09-30T11:19:04;2.78;;;0.52;;
66542;SDS011;53395;37.360;-122.046;2023-09-30T11:21:49;4.07;;;0.90;;
66542;SDS011;53395;37.360;-122.046;2023-09-30T11:24:36;5.50;;;0.80;;
66542;SDS011;53395;37.360;-122.046;2023-09-30T11:27:24;4.93;;;0.63;;
66542;SDS011;53395;37.360;-122.046;2023-09-30T11:30:11;3.88;;;0.68;;
66542;SDS011;53395;37.360;-122.046;2023-09-30T11:35:40;3.90;;;0.70;;
66542;SDS011;53395;37.360;-122.046;2023-09-30T11:38:25;3.47;;;0.80;;
66542;SDS011;53395;37.360;-122.046;2023-09-30T11:41:10;3.10;;;0.70;;
66542;SDS011;53395;37.360;-122.046;2023-09-30T11:43:58;3.63;;;0.60;;
66542;SDS011;53395;37.360;-122.046;2023-09-30T11:46:51;5.70;;;0.90;;
66542;SDS011;53395;37.360;-122.046;2023-09-30T11:49:40;4.35;;;0.88;;
66542;SDS011;53395;37.360;-122.046;2023-09-30T11:52:27;2.15;;;0.50;;
66542;SDS011;53395;37.360;-122.046;2023-09-30T11:55:12;3.92;;;1.17;;
66542;SDS011;53395;37.360;-122.046;2023-09-30T11:57:56;2.92;;;0.95;;
66542;SDS011;53395;37.360;-122.046;2023-09-30T12:00:41;3.58;;;0.70;;
66542;SDS011;53395;37.360;-122.046;2023-09-30T12:03:26;4.50;;;0.65;;
66542;SDS011;53395;37.360;-122.046;2023-09-30T12:06:13;2.42;;;0.50;;
66542;SDS011;53395;37.360;-122.046;2023-09-30T12:09:00;3.92;;;0.88;;
66542;SDS011;53395;37.360;-122.046;2023-09-30T12:11:44;2.33;;;0.63;;
66542;SDS011;53395;37.360;-122.046;2023-09-30T12:14:29;3.65;;;0.65;;
66542;SDS011;53395;37.360;-122.046;2023-09-30T12:17:17;3.80;;;0.70;;
66542;SDS011;53395;37.360;-122.046;2023-09-30T12:20:01;4.68;;;0.88;;
66542;SDS011;53395;37.360;-122.046;2023-09-30T12:22:47;2.63;;;0.60;;
66542;SDS011;53395;37.360;-122.046;2023-09-30T12:25:33;3.17;;;0.80;;
66542;SDS011;53395;37.360;-122.046;2023-09-30T12:28:17;2.78;;;0.80;;
66542;SDS011;53395;37.360;-122.046;2023-09-30T12:31:02;4.18;;;0.70;;
66542;SDS011;53395;37.360;-122.046;2023-09-30T12:33:48;4.30;;;0.70;;
66542;SDS011;53395;37.360;-122.046;2023-09-30T12:36:35;3.42;;;0.60;;
66542;SDS011;53395;37.360;-122.046;2023-09-30T12:39:19;3.50;;;0.63;;
66542;SDS011;53395;37.360;-122.046;2023-09-30T12:42:08;5.40;;;0.93;;
66542;SDS011;53395;37.360;-122.046;2023-09-30T12:44:54;3.45;;;0.80;;
66542;SDS011;53395;37.360;-122.046;2023-09-30T12:47:39;3.45;;;0.47;;
66542;SDS011;53395;37.360;-122.046;2023-09-30T12:50:23;4.80;;;0.73;;
66542;SDS011;53395;37.360;-122.046;2023-09-30T12:53:08;4.65;;;0.70;;
66542;SDS011;53395;37.360;-122.046;2023-09-30T12:55:52;4.70;;;0.95;;
66542;SDS011;53395;37.360;-122.046;2023-09-30T12:58:37;4.57;;;0.82;;
66542;SDS011;53395;37.360;-122.046;2023-09-30T13:01:22;5.15;;;0.70;;
66542;SDS011;53395;37.360;-122.046;2023-09-30T13:04:07;4.18;;;0.70;;
66542;SDS011;53395;37.360;-122.046;2023-09-30T13:06:52;4.95;;;0.80;;
66542;SDS011;53395;37.360;-122.046;2023-09-30T13:09:38;4.78;;;0.70;;
66542;SDS011;53395;37.360;-122.046;2023-09-30T13:12:22;4.28;;;0.70;;
66542;SDS011;53395;37.360;-122.046;2023-09-30T13:15:07;5.85;;;1.25;;
66542;SDS011;53395;37.360;-122.046;2023-09-30T13:17:52;9.30;;;1.20;;
66542;SDS011;53395;37.360;-122.046;2023-09-30T13:20:37;5.43;;;0.88;;
66542;SDS011;53395;37.360;-122.046;2023-09-30T13:23:22;3.85;;;0.70;;
66542;SDS011;53395;37.360;-122.046;2023-09-30T13:26:06;4.47;;;0.70;;
66542;SDS011;53395;37.360;-122.046;2023-09-30T13:28:51;6.40;;;1.02;;
66542;SDS011;53395;37.360;-122.046;2023-09-30T13:31:36;4.03;;;0.70;;
66542;SDS011;53395;37.360;-122.046;2023-09-30T13:34:23;3.95;;;0.70;;
66542;SDS011;53395;37.360;-122.046;2023-09-30T13:37:08;3.03;;;0.57;;
66542;SDS011;53395;37.360;-122.046;2023-09-30T13:39:53;3.55;;;0.60;;
66542;SDS011;53395;37.360;-122.046;2023-09-30T13:42:38;3.17;;;0.63;;
66542;SDS011;53395;37.360;-122.046;2023-09-30T13:45:23;3.60;;;0.70;;
66542;SDS011;53395;37.360;-122.046;2023-09-30T13:48:07;10.38;;;1.23;;
66542;SDS011;53395;37.360;-122.046;2023-09-30T13:50:51;2.20;;;0.73;;
66542;SDS011;53395;37.360;-122.046;2023-09-30T13:53:36;1.73;;;0.50;;
66542;SDS011;53395;37.360;-122.046;2023-09-30T13:56:21;2.90;;;0.50;;
66542;SDS011;53395;37.360;-122.046;2023-09-30T13:59:05;3.22;;;0.40;;
66542;SDS011;53395;37.360;-122.046;2023-09-30T14:01:50;1.63;;;0.50;;
66542;SDS011;53395;37.360;-122.046;2023-09-30T14:04:35;2.80;;;0.50;;
66542;SDS011;53395;37.360;-122.046;2023-09-30T14:07:19;1.98;;;0.40;;
66542;SDS011;53395;37.360;-122.046;2023-09-30T14:10:04;2.00;;;0.40;;
66542;SDS011;53395;37.360;-122.046;2023-09-30T14:15:34;2.58;;;0.50;;
66542;SDS011;53395;37.360;-122.046;2023-09-30T14:18:18;5.53;;;0.50;;
66542;SDS011;53395;37.360;-122.046;2023-09-30T14:21:03;1.70;;;0.40;;
66542;SDS011;53395;37.360;-122.046;2023-09-30T14:23:48;2.90;;;0.60;;
66542;SDS011;53395;37.360;-122.046;2023-09-30T14:26:33;4.72;;;0.47;;
66542;SDS011;53395;37.360;-122.046;2023-09-30T14:29:17;1.55;;;0.40;;
66542;SDS011;53395;37.360;-122.046;2023-09-30T14:32:02;2.90;;;0.88;;
66542;SDS011;53395;37.360;-122.046;2023-09-30T14:34:46;4.60;;;0.73;;
66542;SDS011;53395;37.360;-122.046;2023-09-30T14:37:31;4.75;;;1.30;;
66542;SDS011;53395;37.360;-122.046;2023-09-30T14:40:15;11.00;;;1.70;;
66542;SDS011;53395;37.360;-122.046;2023-09-30T14:43:00;5.97;;;1.83;;
66542;SDS011;53395;37.360;-122.046;2023-09-30T14:45:49;9.27;;;2.25;;
66542;SDS011;53395;37.360;-122.046;2023-09-30T14:48:34;10.73;;;2.67;;
66542;SDS011;53395;37.360;-122.046;2023-09-30T14:51:22;11.32;;;3.10;;
66542;SDS011;53395;37.360;-122.046;2023-09-30T14:54:07;10.73;;;2.78;;
66542;SDS011;53395;37.360;-122.046;2023-09-30T14:56:52;14.55;;;3.13;;
66542;SDS011;53395;37.360;-122.046;2023-09-30T14:59:36;6.38;;;1.95;;
66542;SDS011;53395;37.360;-122.046;2023-09-30T15:02:21;8.38;;;1.85;;
66542;SDS011;53395;37.360;-122.046;2023-09-30T15:05:06;5.25;;;1.67;;
66542;SDS011;53395;37.360;-122.046;2023-09-30T15:07:51;5.50;;;1.50;;
66542;SDS011;53395;37.360;-122.046;2023-09-30T15:10:35;7.60;;;2.38;;
66542;SDS011;53395;37.360;-122.046;2023-09-30T15:13:20;7.43;;;2.05;;
66542;SDS011;53395;37.360;-122.046;2023-09-30T15:16:04;12.05;;;3.30;;
66542;SDS011;53395;37.360;-122.046;2023-09-30T15:18:49;13.40;;;3.25;;
66542;SDS011;53395;37.360;-122.046;2023-09-30T15:21:34;14.07;;;2.78;;
66542;SDS011;53395;37.360;-122.046;2023-09-30T15:24:18;18.08;;;3.65;;
66542;SDS011;53395;37.360;-122.046;2023-09-30T15:27:03;13.98;;;3.10;;
66542;SDS011;53395;37.360;-122.046;2023-09-30T15:29:47;11.65;;;3.45;;
66542;SDS011;53395;37.360;-122.046;2023-09-30T15:32:33;18.65;;;4.03;;
66542;SDS011;53395;37.360;-122.046;2023-09-30T15:35:17;20.30;;;4.30;;
66542;SDS011;53395;37.360;-122.046;2023-09-30T15:38:01;14.88;;;3.70;;
66542;SDS011;53395;37.360;-122.046;2023-09-30T15:40:54;15.25;;;3.65;;
66542;SDS011;53395;37.360;-122.046;2023-09-30T15:43:38;19.40;;;4.68;;
66542;SDS011;53395;37.360;-122.046;2023-09-30T15:46:23;20.50;;;5.25;;
66542;SDS011;53395;37.360;-122.046;2023-09-30T15:49:07;18.75;;;4.18;;
66542;SDS011;53395;37.360;-122.046;2023-09-30T15:51:52;15.93;;;4.80;;
66542;SDS011;53395;37.360;-122.046;2023-09-30T15:54:37;18.88;;;4.40;;
66542;SDS011;53395;37.360;-122.046;2023-09-30T15:57:22;18.13;;;4.00;;
66542;SDS011;53395;37.360;-122.046;2023-09-30T16:00:08;21.45;;;4.65;;
66542;SDS011;53395;37.360;-122.046;2023-09-30T16:02:54;12.25;;;3.08;;
66542;SDS011;53395;37.360;-122.046;2023-09-30T16:05:39;16.70;;;3.33;;
66542;SDS011;53395;37.360;-122.046;2023-09-30T16:08:23;14.15;;;3.15;;
66542;SDS011;53395;37.360;-122.046;2023-09-30T16:11:08;13.07;;;3.70;;
66542;SDS011;53395;37.360;-122.046;2023-09-30T16:13:52;15.75;;;3.17;;
66542;SDS011;53395;37.360;-122.046;2023-09-30T16:16:37;17.90;;;3.70;;
66542;SDS011;53395;37.360;-122.046;2023-09-30T16:19:21;10.32;;;2.85;;
66542;SDS011;53395;37.360;-122.046;2023-09-30T16:22:06;9.82;;;3.47;;
66542;SDS011;53395;37.360;-122.046;2023-09-30T16:24:50;14.52;;;3.67;;
66542;SDS011;53395;37.360;-122.046;2023-09-30T16:27:35;12.73;;;2.70;;
66542;SDS011;53395;37.360;-122.046;2023-09-30T16:30:20;10.48;;;3.05;;